Time;durP1;ratioP1;P1;durP2;ratioP2;P2;SDS_P1;SDS_P2;PMS_P1;PMS_P2;Temp;Humidity;BMP_temperature;BMP_pressure;BME280_temperature;BME280_humidity;BME280_pressure;Samples;Min_cycle;Max_cycle;Signal;HPM_P1;HPM_P2
2022/04/08 00:00:16;;;;;;;12.30;1.92;;;;;;;6.88;74.92;99695.16;4693597;30;20029;-91
2022/04/08 00:02:41;;;;;;;11.07;2.30;;;;;;;6.82;74.88;99692.78;4704378;30;20807;-88
2022/04/08 00:05:07;;;;;;;15.00;3.90;;;;;;;6.88;74.90;99700.41;4707236;30;20087;-91
2022/04/08 00:07:32;;;;;;;15.77;3.78;;;;;;;6.88;74.55;99704.81;4704841;30;20051;-91
2022/04/08 00:09:58;;;;;;;16.10;2.17;;;;;;;6.93;74.18;99705.47;4694716;30;20029;-92
2022/04/08 00:12:23;;;;;;;14.77;2.80;;;;;;;6.92;74.38;99706.38;4709100;30;20418;-90
2022/04/08 00:14:48;;;;;;;12.30;2.40;;;;;;;6.89;73.50;99709.97;4710196;30;20118;-90
2022/04/08 00:17:14;;;;;;;6.95;1.70;;;;;;;6.90;73.58;99718.72;4698339;30;20723;-91
2022/04/08 00:19:39;;;;;;;18.75;2.88;;;;;;;6.90;72.94;99719.59;4715285;30;20518;-91
2022/04/08 00:22:05;;;;;;;10.30;1.75;;;;;;;6.90;72.97;99729.22;4716331;30;20058;-89
2022/04/08 00:24:31;;;;;;;12.43;1.60;;;;;;;6.93;71.83;99741.38;4708023;30;20525;-91
2022/04/08 00:26:56;;;;;;;7.10;1.20;;;;;;;6.90;71.96;99734.47;4709366;30;20045;-90
2022/04/08 00:29:22;;;;;;;7.63;1.98;;;;;;;6.92;71.20;99743.16;4690831;30;20061;-90
2022/04/08 00:31:47;;;;;;;10.75;2.22;;;;;;;6.94;70.93;99754.44;4691316;30;20545;-89
2022/04/08 00:34:12;;;;;;;8.68;1.88;;;;;;;6.94;70.81;99748.34;4692077;30;20045;-89
2022/04/08 00:36:37;;;;;;;9.52;1.95;;;;;;;6.87;70.58;99734.63;4711504;30;20114;-91
2022/04/08 00:39:03;;;;;;;15.13;2.17;;;;;;;6.93;71.04;99744.88;4712109;30;20036;-91
2022/04/08 00:41:28;;;;;;;15.23;2.80;;;;;;;6.95;70.70;99761.44;4695137;30;20069;-91
2022/04/08 00:43:54;;;;;;;8.35;1.75;;;;;;;6.87;70.75;99756.50;4713226;30;20040;-91
2022/04/08 00:46:19;;;;;;;7.20;2.00;;;;;;;6.85;71.51;99746.97;4699313;30;20032;-89
2022/04/08 00:48:44;;;;;;;10.85;1.77;;;;;;;6.86;71.08;99748.69;4712949;30;20040;-90
2022/04/08 00:51:11;;;;;;;11.85;1.55;;;;;;;6.90;70.92;99760.75;4696053;30;20505;-91
2022/04/08 00:53:37;;;;;;;10.13;1.77;;;;;;;6.92;71.06;99772.06;4696836;30;20057;-91
2022/04/08 00:56:03;;;;;;;13.18;2.67;;;;;;;6.88;70.48;99773.13;4707217;30;20065;-90
2022/04/08 00:58:30;;;;;;;10.25;2.13;;;;;;;6.93;70.38;99771.13;4708209;30;21085;-90
2022/04/08 01:00:56;;;;;;;10.45;1.35;;;;;;;6.90;70.38;99771.25;4704400;30;20043;-91
2022/04/08 01:03:21;;;;;;;8.70;2.45;;;;;;;6.93;70.32;99784.28;4691520;30;20553;-90
2022/04/08 01:05:47;;;;;;;13.00;1.85;;;;;;;6.93;70.62;99791.31;4690675;30;20098;-90
2022/04/08 01:08:14;;;;;;;9.75;2.10;;;;;;;6.91;70.38;99778.25;4704344;30;20040;-92
2022/04/08 01:10:40;;;;;;;13.25;2.03;;;;;;;6.92;70.61;99792.25;4690524;30;20099;-91
2022/04/08 01:13:06;;;;;;;11.65;2.38;;;;;;;6.89;70.94;99801.09;4706281;30;20423;-91
2022/04/08 01:15:31;;;;;;;10.65;1.95;;;;;;;6.88;70.84;99799.38;4706697;30;21154;-91
2022/04/08 01:17:57;;;;;;;11.95;2.42;;;;;;;6.88;70.51;99804.63;4693823;30;20041;-90
2022/04/08 01:20:23;;;;;;;8.10;1.77;;;;;;;6.82;71.01;99797.88;4707604;30;20142;-91
2022/04/08 01:22:48;;;;;;;8.77;1.75;;;;;;;6.88;71.16;99815.16;4690077;30;20032;-92
2022/04/08 01:25:13;;;;;;;9.98;1.40;;;;;;;6.85;71.13;99808.25;4716789;30;20132;-90
2022/04/08 01:27:40;;;;;;;9.27;1.58;;;;;;;6.76;71.72;99802.50;4692444;30;20457;-92
2022/04/08 01:30:12;;;;;;;10.00;1.77;;;;;;;6.73;71.67;99815.78;4704693;30;20135;-91
2022/04/08 01:32:38;;;;;;;15.27;1.92;;;;;;;6.70;71.61;99821.16;4705474;30;20495;-91
2022/04/08 01:35:04;;;;;;;10.40;1.67;;;;;;;6.61;72.04;99822.38;4706568;30;20041;-91
2022/04/08 01:37:30;;;;;;;11.57;1.92;;;;;;;6.54;72.40;99823.56;4687751;30;20083;-92
2022/04/08 01:39:55;;;;;;;12.60;2.20;;;;;;;6.57;72.13;99821.63;4690480;30;20037;-91
2022/04/08 01:42:24;;;;;;;10.30;1.40;;;;;;;6.56;72.04;99819.09;4689989;30;20690;-89
2022/04/08 01:44:53;;;;;;;8.02;1.60;;;;;;;6.68;72.05;99833.50;4704687;30;20059;-90
2022/04/08 01:47:19;;;;;;;7.00;1.17;;;;;;;6.56;72.32;99822.56;4704427;30;20040;-91
2022/04/08 01:49:44;;;;;;;7.35;1.60;;;;;;;6.40;72.46;99818.84;4706347;30;20128;-90
2022/04/08 01:52:10;;;;;;;6.85;2.22;;;;;;;6.39;72.24;99828.50;4692855;30;20463;-89
2022/04/08 01:54:35;;;;;;;8.02;1.75;;;;;;;6.28;71.81;99829.81;4707106;30;20040;-91
2022/04/08 01:57:00;;;;;;;12.13;1.80;;;;;;;6.25;71.48;99832.53;4706891;30;20044;-89
2022/04/08 01:59:26;;;;;;;8.75;1.65;;;;;;;6.26;72.02;99842.16;4715247;30;20049;-91
2022/04/08 02:01:51;;;;;;;8.52;1.60;;;;;;;6.20;72.31;99843.25;4693363;30;20592;-91
2022/04/08 02:04:17;;;;;;;10.07;1.70;;;;;;;6.14;71.58;99838.22;4691361;30;20053;-88
2022/04/08 02:06:42;;;;;;;6.22;1.35;;;;;;;6.14;72.09;99840.84;4724981;30;20045;-91
2022/04/08 02:09:09;;;;;;;9.02;1.67;;;;;;;6.17;71.61;99853.00;4698487;30;20037;-91
2022/04/08 02:11:36;;;;;;;9.25;1.38;;;;;;;6.13;71.64;99849.63;4724210;30;20490;-89
2022/04/08 02:14:02;;;;;;;4.85;1.23;;;;;;;6.10;71.74;99855.84;4711575;30;20394;-91
2022/04/08 02:16:28;;;;;;;10.55;1.83;;;;;;;6.07;72.40;99857.75;4688945;30;20037;-91
2022/04/08 02:18:53;;;;;;;8.57;1.50;;;;;;;6.06;72.46;99862.16;4706468;30;20056;-92
2022/04/08 02:21:19;;;;;;;7.22;1.58;;;;;;;6.08;72.94;99869.94;4704029;30;20495;-90
2022/04/08 02:23:49;;;;;;;6.57;1.83;;;;;;;6.09;73.75;99874.28;4687689;30;20077;-89
2022/04/08 02:26:16;;;;;;;9.75;2.17;;;;;;;6.09;73.45;99874.28;4706035;30;20033;-91
2022/04/08 02:28:42;;;;;;;7.68;1.52;;;;;;;6.17;73.37;99879.25;4705631;30;20037;-92
2022/04/08 02:31:08;;;;;;;8.07;2.67;;;;;;;6.12;72.54;99867.16;4689039;30;20057;-90
2022/04/08 02:33:33;;;;;;;10.50;2.67;;;;;;;6.16;72.78;99861.78;4688307;30;20056;-89
2022/04/08 02:35:58;;;;;;;7.32;1.83;;;;;;;6.20;73.07;99873.88;4706237;30;20068;-89
2022/04/08 02:38:24;;;;;;;7.68;2.10;;;;;;;6.18;73.19;99873.94;4688800;30;20091;-90
2022/04/08 02:40:49;;;;;;;11.07;2.10;;;;;;;6.14;73.38;99867.94;4706232;30;20403;-91
2022/04/08 02:43:14;;;;;;;13.18;2.60;;;;;;;6.06;73.92;99870.00;4690125;30;20044;-92
2022/04/08 02:45:39;;;;;;;7.90;1.75;;;;;;;6.06;73.96;99875.25;4690130;30;20213;-89
2022/04/08 02:48:05;;;;;;;7.97;2.15;;;;;;;5.91;73.77;99873.16;4704815;30;20041;-88
2022/04/08 02:50:30;;;;;;;8.23;1.90;;;;;;;5.78;73.69;99869.25;4690421;30;20036;-91
2022/04/08 02:52:56;;;;;;;9.60;1.55;;;;;;;5.71;74.64;99871.25;4690590;30;20041;-91
2022/04/08 02:55:21;;;;;;;9.65;1.52;;;;;;;5.63;74.88;99879.38;4687903;30;20037;-90
2022/04/08 02:57:47;;;;;;;6.05;1.80;;;;;;;5.59;75.02;99883.00;4688505;30;20041;-91
2022/04/08 03:00:17;;;;;;;10.00;2.00;;;;;;;5.51;75.04;99889.47;4705614;30;20609;-90
2022/04/08 03:02:45;;;;;;;7.13;1.63;;;;;;;5.46;75.38;99884.38;4703474;30;20522;-90
2022/04/08 03:05:10;;;;;;;6.20;1.80;;;;;;;5.44;75.82;99887.94;4689618;30;20029;-91
2022/04/08 03:07:36;;;;;;;11.00;2.35;;;;;;;5.33;76.65;99880.47;4688272;30;20539;-91
2022/04/08 03:10:04;;;;;;;6.32;1.80;;;;;;;5.30;76.36;99881.41;4690835;30;20616;-91
2022/04/08 03:12:30;;;;;;;12.20;2.08;;;;;;;5.20;77.03;99879.16;4687026;30;20041;-90
2022/04/08 03:14:56;;;;;;;7.05;2.00;;;;;;;5.05;77.04;99863.03;4710222;30;20419;-92
2022/04/08 03:17:22;;;;;;;8.55;2.78;;;;;;;5.17;77.50;99882.72;4715261;30;20294;-90
2022/04/08 03:19:47;;;;;;;8.77;1.67;;;;;;;5.12;77.55;99882.03;4699005;30;20557;-92
2022/04/08 03:22:12;;;;;;;8.05;2.05;;;;;;;5.16;77.59;99888.03;4716441;30;20790;-89
2022/04/08 03:24:38;;;;;;;7.90;2.10;;;;;;;5.08;77.61;99876.06;4700858;30;20115;-91
2022/04/08 03:27:03;;;;;;;13.57;1.92;;;;;;;5.08;77.47;99891.78;4701810;30;20037;-91
2022/04/08 03:29:28;;;;;;;11.35;1.85;;;;;;;5.01;77.19;99885.00;4691249;30;20092;-91
2022/04/08 03:31:54;;;;;;;8.77;1.85;;;;;;;5.03;77.28;99896.28;4693788;30;20149;-91
2022/04/08 03:34:19;;;;;;;4.47;1.15;;;;;;;4.94;77.22;99890.47;4694839;30;20068;-91
2022/04/08 03:36:45;;;;;;;14.40;2.83;;;;;;;4.91;77.74;99901.06;4694079;30;20711;-91
2022/04/08 03:39:13;;;;;;;10.85;1.95;;;;;;;4.81;77.91;99900.50;4706600;30;20033;-89
2022/04/08 03:41:39;;;;;;;14.88;2.17;;;;;;;4.69;78.22;99899.13;4691715;30;20083;-90
2022/04/08 03:44:04;;;;;;;10.25;2.22;;;;;;;4.72;78.11;99913.91;4704926;30;20037;-90
2022/04/08 03:46:29;;;;;;;9.45;2.13;;;;;;;4.69;78.32;99909.59;4710317;30;20051;-90
2022/04/08 03:48:54;;;;;;;9.63;2.28;;;;;;;4.65;78.52;99918.44;4690895;30;20383;-90
2022/04/08 03:51:20;;;;;;;7.50;1.83;;;;;;;4.63;78.42;99908.94;4690423;30;20040;-89
2022/04/08 03:53:45;;;;;;;11.07;2.45;;;;;;;4.61;78.79;99912.44;4689675;30;20028;-91
2022/04/08 03:56:10;;;;;;;13.82;2.10;;;;;;;4.61;78.98;99914.19;4690263;30;20296;-91
2022/04/08 03:58:36;;;;;;;10.57;2.10;;;;;;;4.59;78.87;99916.88;4689432;30;20522;-91
2022/04/08 04:01:01;;;;;;;10.30;2.08;;;;;;;4.58;79.10;99923.03;4694124;30;20037;-90
2022/04/08 04:03:26;;;;;;;4.82;1.92;;;;;;;4.54;79.20;99920.53;4706811;30;20044;-89
2022/04/08 04:05:52;;;;;;;6.53;1.67;;;;;;;4.53;78.93;99924.94;4708238;30;20045;-90
2022/04/08 04:08:19;;;;;;;12.95;2.92;;;;;;;4.46;79.02;99912.06;4706917;30;20411;-91
2022/04/08 04:10:46;;;;;;;7.38;2.33;;;;;;;4.42;79.10;99907.81;4705312;30;20543;-92
2022/04/08 04:13:11;;;;;;;5.40;2.03;;;;;;;4.42;79.11;99908.66;4689368;30;20494;-91
2022/04/08 04:15:37;;;;;;;9.50;2.13;;;;;;;4.45;79.00;99918.19;4692790;30;20044;-91
2022/04/08 04:18:03;;;;;;;8.23;2.38;;;;;;;4.40;78.97;99913.09;4689338;30;20029;-90
2022/04/08 04:20:28;;;;;;;11.48;2.70;;;;;;;4.28;79.57;99908.22;4720477;30;20049;-91
2022/04/08 04:22:54;;;;;;;11.55;2.55;;;;;;;4.29;79.67;99915.16;4690677;30;20055;-90
2022/04/08 04:25:19;;;;;;;9.35;2.50;;;;;;;4.25;80.08;99910.94;4708927;30;20475;-92
2022/04/08 04:27:44;;;;;;;12.68;2.78;;;;;;;4.20;79.82;99902.38;4694139;30;20089;-90
2022/04/08 04:30:10;;;;;;;8.73;2.67;;;;;;;4.19;79.94;99895.41;4710197;30;20310;-89
2022/04/08 04:32:36;;;;;;;8.07;2.30;;;;;;;4.22;79.83;99914.50;4709538;30;20593;-90
2022/04/08 04:35:06;;;;;;;10.18;2.50;;;;;;;4.24;79.88;99910.09;4705840;30;20037;-88
2022/04/08 04:37:41;;;;;;;8.15;2.80;;;;;;;4.19;79.56;99908.50;4708449;30;20041;-88
2022/04/08 04:40:08;;;;;;;8.93;2.55;;;;;;;4.20;80.02;99915.47;4689445;30;20041;-89
2022/04/08 04:42:33;;;;;;;6.38;2.50;;;;;;;4.20;80.13;99916.31;4690605;30;20057;-92
2022/04/08 04:44:59;;;;;;;10.70;3.40;;;;;;;4.18;80.24;99927.72;4705707;30;20037;-89
2022/04/08 04:47:24;;;;;;;6.43;2.33;;;;;;;4.15;79.75;99923.44;4694874;30;20043;-89
2022/04/08 04:49:49;;;;;;;6.70;2.95;;;;;;;4.06;79.82;99908.00;4706823;30;20032;-92
2022/04/08 04:52:15;;;;;;;6.85;2.95;;;;;;;4.13;79.62;99919.16;4704843;30;20040;-88
2022/04/08 04:54:44;;;;;;;9.38;2.85;;;;;;;4.08;80.21;99925.34;4705536;30;20041;-91
2022/04/08 04:57:09;;;;;;;5.72;2.75;;;;;;;4.12;80.10;99928.75;4706672;30;20045;-88
2022/04/08 04:59:34;;;;;;;14.25;4.05;;;;;;;4.07;80.26;99910.56;4693375;30;20374;-91
2022/04/08 05:02:00;;;;;;;7.63;3.22;;;;;;;4.11;80.26;99923.56;4706579;30;20037;-89
2022/04/08 05:04:25;;;;;;;5.07;3.67;;;;;;;4.10;80.21;99922.69;4706049;30;20037;-92
2022/04/08 05:06:51;;;;;;;8.10;3.45;;;;;;;4.10;80.17;99920.06;4689845;30;20033;-91
2022/04/08 05:09:16;;;;;;;8.02;3.17;;;;;;;4.07;80.30;99914.94;4716195;30;20047;-91
2022/04/08 05:11:42;;;;;;;12.18;3.85;;;;;;;4.06;80.09;99903.63;4691976;30;20446;-90
2022/04/08 05:14:07;;;;;;;14.93;3.58;;;;;;;4.08;80.11;99914.03;4704293;30;20122;-91
2022/04/08 05:16:33;;;;;;;16.23;4.65;;;;;;;4.09;79.85;99913.97;4691390;30;20041;-91
2022/04/08 05:18:58;;;;;;;9.60;4.20;;;;;;;4.14;80.14;99919.09;4706866;30;20060;-90
2022/04/08 05:21:24;;;;;;;10.00;4.57;;;;;;;4.18;80.22;99917.25;4691810;30;20040;-89
2022/04/08 05:23:49;;;;;;;10.90;4.18;;;;;;;4.14;80.10;99907.78;4690650;30;20033;-91
2022/04/08 05:26:15;;;;;;;11.43;5.07;;;;;;;4.22;79.89;99908.41;4706916;30;20051;-91
2022/04/08 05:28:41;;;;;;;14.65;5.30;;;;;;;4.24;80.12;99917.94;4715143;30;20045;-90
2022/04/08 05:31:06;;;;;;;14.55;5.55;;;;;;;4.27;79.96;99911.75;4706398;30;20059;-90
2022/04/08 05:33:32;;;;;;;12.35;6.05;;;;;;;4.37;79.89;99914.94;4714463;30;20417;-91
2022/04/08 05:35:57;;;;;;;11.82;5.00;;;;;;;4.47;79.36;99904.16;4733191;30;20114;-90
2022/04/08 05:38:23;;;;;;;9.98;5.00;;;;;;;4.52;79.17;99897.03;4696638;30;20045;-92
2022/04/08 05:40:49;;;;;;;9.80;4.53;;;;;;;4.64;78.78;99902.78;4697774;30;20533;-91
2022/04/08 05:43:15;;;;;;;14.23;5.82;;;;;;;4.66;78.87;99904.44;4706821;30;20033;-88
2022/04/08 05:45:41;;;;;;;10.63;5.43;;;;;;;4.70;78.91;99910.44;4693091;30;20139;-91
2022/04/08 05:48:07;;;;;;;14.55;4.85;;;;;;;4.77;78.96;99912.00;4688431;30;20036;-90
2022/04/08 05:50:32;;;;;;;9.88;4.85;;;;;;;4.79;79.11;99904.94;4718923;30;20053;-91
2022/04/08 05:52:57;;;;;;;15.23;5.60;;;;;;;4.83;79.05;99898.69;4718889;30;20131;-92
2022/04/08 05:55:23;;;;;;;10.60;5.80;;;;;;;4.83;78.92;99886.44;4706627;30;20049;-91
2022/04/08 05:57:48;;;;;;;12.77;5.85;;;;;;;4.90;79.17;99892.38;4697451;30;20123;-91
2022/04/08 06:00:15;;;;;;;16.40;7.57;;;;;;;4.82;79.64;99883.88;4697343;30;20069;-91
2022/04/08 06:02:45;;;;;;;12.07;5.93;;;;;;;4.86;79.52;99883.75;4722508;30;20052;-89
2022/04/08 06:05:11;;;;;;;15.18;6.78;;;;;;;4.91;79.26;99890.59;4714097;30;20039;-89
2022/04/08 06:07:51;;;;;;;11.43;6.32;;;;;;;4.95;79.40;99895.69;4710234;30;20037;-91
2022/04/08 06:10:22;;;;;;;20.90;7.05;;;;;;;4.92;79.51;99889.69;4692946;30;20619;-89
2022/04/08 06:12:51;;;;;;;15.35;7.65;;;;;;;4.97;79.77;99885.16;4688394;30;20114;-90
2022/04/08 06:15:18;;;;;;;18.73;8.77;;;;;;;4.98;80.21;99879.84;4704196;30;20032;-89
2022/04/08 06:17:44;;;;;;;17.08;8.98;;;;;;;5.09;79.72;99890.00;4706711;30;20040;-90
2022/04/08 06:20:11;;;;;;;13.32;8.23;;;;;;;5.13;79.63;99883.75;4707166;30;20045;-90
2022/04/08 06:22:40;;;;;;;13.20;7.30;;;;;;;5.24;79.46;99886.00;4705098;30;20037;-91
2022/04/08 06:25:07;;;;;;;11.40;7.50;;;;;;;5.22;78.70;99872.09;4706128;30;20029;-91
2022/04/08 06:27:33;;;;;;;15.55;8.57;;;;;;;5.32;78.75;99889.25;4706033;30;20518;-91
2022/04/08 06:29:58;;;;;;;19.00;9.20;;;;;;;5.36;78.82;99896.94;4702387;30;20057;-91
2022/04/08 06:32:23;;;;;;;15.57;8.07;;;;;;;5.41;78.65;99903.78;4685327;30;20048;-90
2022/04/08 06:34:49;;;;;;;13.52;7.45;;;;;;;5.46;78.62;99892.25;4688224;30;20048;-92
2022/04/08 06:37:14;;;;;;;10.60;7.07;;;;;;;5.60;77.74;99904.88;4688939;30;20403;-89
2022/04/08 06:39:39;;;;;;;15.70;7.20;;;;;;;5.64;77.39;99890.72;4703788;30;20059;-91
2022/04/08 06:42:05;;;;;;;13.68;7.65;;;;;;;5.71;78.25;99876.50;4704855;30;20478;-92
2022/04/08 06:44:30;;;;;;;10.90;6.82;;;;;;;5.81;76.94;99880.50;4700059;30;20041;-91
2022/04/08 06:46:55;;;;;;;13.50;6.97;;;;;;;5.99;76.62;99870.28;4706088;30;20037;-91
2022/04/08 06:49:21;;;;;;;13.77;8.55;;;;;;;5.99;77.07;99871.13;4711483;30;20068;-90
2022/04/08 06:51:46;;;;;;;13.80;7.28;;;;;;;6.14;76.61;99874.97;4717439;30;20384;-91
2022/04/08 06:54:11;;;;;;;9.45;7.05;;;;;;;6.20;76.23;99871.25;4714162;30;20490;-90
2022/04/08 06:56:36;;;;;;;12.48;6.53;;;;;;;6.28;75.97;99856.06;4703824;30;20462;-90
2022/04/08 06:59:02;;;;;;;11.00;6.78;;;;;;;6.38;75.34;99875.78;4703136;30;20134;-91
2022/04/08 07:01:29;;;;;;;11.30;6.40;;;;;;;6.29;74.99;99870.88;4702261;30;20045;-90
2022/04/08 07:03:55;;;;;;;14.45;6.05;;;;;;;6.40;75.36;99871.34;4711557;30;20123;-91
2022/04/08 07:06:20;;;;;;;10.88;5.75;;;;;;;6.32;74.64;99832.25;4714824;30;20040;-90
2022/04/08 07:08:45;;;;;;;13.52;6.88;;;;;;;6.46;74.63;99878.13;4711713;30;20052;-90
2022/04/08 07:11:11;;;;;;;9.23;6.07;;;;;;;6.46;74.79;99876.34;4698068;30;20037;-89
2022/04/08 07:13:38;;;;;;;11.43;5.63;;;;;;;6.55;74.38;99868.13;4699393;30;20095;-91
2022/04/08 07:16:03;;;;;;;9.32;6.10;;;;;;;6.57;73.99;99868.06;4713035;30;20034;-92
2022/04/08 07:18:29;;;;;;;9.43;5.95;;;;;;;6.70;74.53;99877.16;4700985;30;20037;-92
2022/04/08 07:20:54;;;;;;;12.70;5.85;;;;;;;6.67;73.46;99861.53;4715926;30;20098;-91
2022/04/08 07:23:19;;;;;;;9.15;5.68;;;;;;;6.78;73.90;99858.47;4701759;30;20431;-91
2022/04/08 07:25:44;;;;;;;9.45;5.47;;;;;;;6.74;73.00;99860.38;4698763;30;20155;-91
2022/04/08 07:28:10;;;;;;;9.13;5.05;;;;;;;6.75;73.45;99851.56;4703857;30;20058;-91
2022/04/08 07:30:35;;;;;;;8.98;4.68;;;;;;;6.86;72.88;99853.78;4714020;30;20546;-91
2022/04/08 07:33:03;;;;;;;10.65;4.65;;;;;;;6.98;72.46;99857.66;4698320;30;20052;-91
2022/04/08 07:35:30;;;;;;;9.23;4.97;;;;;;;6.97;71.51;99848.06;4720709;30;20038;-90
2022/04/08 07:37:56;;;;;;;6.65;3.83;;;;;;;7.12;71.37;99858.78;4716771;30;20449;-90
2022/04/08 07:40:22;;;;;;;16.95;4.55;;;;;;;7.23;70.55;99858.38;4716003;30;20136;-91
2022/04/08 07:42:48;;;;;;;9.48;4.22;;;;;;;7.17;70.49;99848.09;4697129;30;20566;-89
2022/04/08 07:45:13;;;;;;;6.63;4.22;;;;;;;7.26;70.49;99846.84;4698106;30;20041;-90
2022/04/08 07:47:40;;;;;;;6.25;3.70;;;;;;;7.40;70.94;99863.75;4697808;30;21349;-90
2022/04/08 07:50:10;;;;;;;8.25;4.05;;;;;;;7.48;70.63;99852.91;4711584;30;20033;-91
2022/04/08 07:52:36;;;;;;;6.63;3.60;;;;;;;7.64;68.98;99855.72;4699354;30;20066;-91
2022/04/08 07:55:01;;;;;;;8.85;4.38;;;;;;;7.70;69.29;99854.59;4697498;30;20068;-91
2022/04/08 07:57:27;;;;;;;7.63;3.97;;;;;;;7.66;68.02;99841.56;4717617;30;20036;-93
2022/04/08 07:59:52;;;;;;;8.73;3.53;;;;;;;7.57;68.00;99822.72;4700116;30;20098;-90
2022/04/08 08:02:18;;;;;;;5.22;3.53;;;;;;;7.66;68.60;99843.34;4698230;30;20037;-90
2022/04/08 08:04:43;;;;;;;8.57;3.55;;;;;;;7.68;67.25;99847.63;4713830;30;20045;-90
2022/04/08 08:07:08;;;;;;;9.13;3.63;;;;;;;7.75;68.05;99845.59;4717973;30;20033;-91
2022/04/08 08:09:34;;;;;;;5.80;3.40;;;;;;;7.84;66.73;99853.06;4696416;30;20528;-91
2022/04/08 08:12:01;;;;;;;4.88;3.22;;;;;;;7.83;67.48;99830.31;4712504;30;20041;-89
2022/04/08 08:14:26;;;;;;;6.97;3.63;;;;;;;7.90;67.38;99846.66;4712918;30;20103;-90
2022/04/08 08:16:52;;;;;;;7.55;3.22;;;;;;;7.93;68.11;99843.91;4718175;30;20040;-91
2022/04/08 08:19:17;;;;;;;8.52;3.70;;;;;;;7.98;67.59;99843.69;4714187;30;20233;-92
2022/04/08 08:21:43;;;;;;;7.03;2.92;;;;;;;7.92;65.93;99836.91;4697868;30;20041;-91
2022/04/08 08:24:08;;;;;;;8.18;3.30;;;;;;;7.83;65.64;99848.72;4715376;30;20040;-92
2022/04/08 08:26:34;;;;;;;5.32;3.20;;;;;;;7.67;66.20;99839.81;4697951;30;20037;-91
2022/04/08 08:28:59;;;;;;;9.68;3.42;;;;;;;7.85;66.46;99846.03;4714079;30;20105;-92
2022/04/08 08:31:25;;;;;;;7.25;3.50;;;;;;;7.78;66.08;99847.22;4715143;30;20392;-90
2022/04/08 08:33:50;;;;;;;6.65;3.35;;;;;;;7.89;65.98;99839.69;4700706;30;20043;-91
2022/04/08 08:36:16;;;;;;;10.32;3.45;;;;;;;8.09;66.66;99828.25;4716233;30;20044;-91
2022/04/08 08:38:42;;;;;;;6.00;3.10;;;;;;;8.20;64.10;99825.97;4715108;30;20084;-92
2022/04/08 08:41:10;;;;;;;8.30;3.28;;;;;;;8.21;64.40;99819.81;4714952;30;20055;-90
2022/04/08 08:43:37;;;;;;;4.18;2.85;;;;;;;8.16;61.99;99819.16;4696000;30;20136;-92
2022/04/08 08:46:04;;;;;;;5.20;2.53;;;;;;;8.16;62.54;99812.13;4714838;30;20071;-91
2022/04/08 08:48:34;;;;;;;5.72;2.83;;;;;;;8.42;62.70;99812.69;4700344;30;20059;-90
2022/04/08 08:51:05;;;;;;;7.45;2.60;;;;;;;8.47;62.57;99799.28;4717485;30;20029;-91
2022/04/08 08:53:32;;;;;;;5.78;2.30;;;;;;;8.47;59.78;99805.41;4713871;30;20440;-89
2022/04/08 08:55:57;;;;;;;4.90;2.50;;;;;;;8.44;60.27;99795.03;4698824;30;20492;-91
2022/04/08 08:58:23;;;;;;;6.00;2.47;;;;;;;8.49;59.47;99790.41;4713608;30;20087;-91
2022/04/08 09:00:49;;;;;;;4.47;2.28;;;;;;;8.64;58.33;99775.63;4700961;30;20118;-92
2022/04/08 09:03:14;;;;;;;6.28;2.38;;;;;;;8.76;59.56;99776.78;4702233;30;20036;-93
2022/04/08 09:05:41;;;;;;;5.80;2.58;;;;;;;8.99;58.15;99794.94;4697084;30;20037;-91
2022/04/08 09:08:08;;;;;;;5.03;2.10;;;;;;;9.03;56.87;99774.56;4697034;30;20192;-93
2022/04/08 09:10:39;;;;;;;6.28;2.05;;;;;;;9.11;58.44;99778.50;4698454;30;20427;-92
2022/04/08 09:13:07;;;;;;;7.65;3.38;;;;;;;9.16;57.20;99773.00;4716595;30;20549;-93
2022/04/08 09:15:39;;;;;;;4.35;2.45;;;;;;;9.20;59.55;99778.03;4699134;30;20131;-92
2022/04/08 09:18:12;;;;;;;4.72;1.95;;;;;;;9.22;58.23;99785.00;4713608;30;20041;-91
2022/04/08 09:20:39;;;;;;;6.43;2.33;;;;;;;9.27;58.76;99769.81;4695709;30;20462;-95
2022/04/08 09:23:06;;;;;;;5.30;2.50;;;;;;;9.29;57.11;99779.34;4716728;30;20491;-92
2022/04/08 09:25:31;;;;;;;6.43;2.95;;;;;;;9.25;58.02;99782.22;4685428;30;20584;-92
2022/04/08 09:28:04;;;;;;;6.20;3.30;;;;;;;9.29;58.23;99778.50;4697929;30;20033;-92
2022/04/08 09:30:29;;;;;;;5.43;2.53;;;;;;;9.23;56.69;99779.66;4725911;30;20641;-90
2022/04/08 09:32:55;;;;;;;7.22;2.88;;;;;;;8.82;58.01;99761.53;4715016;30;20120;-92
2022/04/08 09:35:20;;;;;;;5.82;3.20;;;;;;;8.97;58.97;99780.16;4717454;30;20037;-91
2022/04/08 09:38:01;;;;;;;4.95;2.60;;;;;;;9.11;58.97;99778.50;4715557;30;20040;-91
2022/04/08 09:40:47;;;;;;;7.90;2.20;;;;;;;9.18;59.14;99776.41;4729398;30;20041;-91
2022/04/08 09:43:14;;;;;;;7.07;2.50;;;;;;;9.15;58.22;99777.44;4710745;30;20551;-91
2022/04/08 09:45:39;;;;;;;6.68;2.35;;;;;;;9.12;58.25;99769.66;4695556;30;20032;-91
2022/04/08 09:48:06;;;;;;;8.00;3.33;;;;;;;9.24;59.22;99770.81;4716538;30;20507;-91
2022/04/08 09:50:33;;;;;;;8.95;3.30;;;;;;;9.10;58.28;99766.25;4710872;30;20037;-92
2022/04/08 09:52:59;;;;;;;10.15;3.33;;;;;;;9.16;59.77;99759.81;4698451;30;20032;-91
2022/04/08 09:55:25;;;;;;;5.18;2.80;;;;;;;9.38;59.37;99764.84;4713305;30;20099;-92
2022/04/08 09:58:12;;;;;;;8.88;3.00;;;;;;;9.54;59.34;99772.78;4710575;30;20044;-90
2022/04/08 10:00:41;;;;;;;5.88;3.10;;;;;;;9.34;58.40;99763.28;4710568;30;20051;-93
2022/04/08 10:03:08;;;;;;;7.47;2.83;;;;;;;9.47;59.17;99764.34;4711873;30;20071;-93
2022/04/08 10:05:33;;;;;;;5.07;2.95;;;;;;;9.58;57.66;99766.41;4697338;30;20041;-92
2022/04/08 10:07:59;;;;;;;7.18;2.70;;;;;;;9.57;58.59;99762.06;4697515;30;20486;-92
2022/04/08 10:10:51;;;;;;;8.82;2.50;;;;;;;9.74;58.04;99764.63;4711813;30;20033;-93
2022/04/08 10:13:54;;;;;;;6.60;2.25;;;;;;;9.77;57.95;99771.56;4698914;30;20040;-91
2022/04/08 10:16:20;;;;;;;3.95;1.90;;;;;;;9.69;55.46;99775.44;4676741;30;20566;-92
2022/04/08 10:18:48;;;;;;;4.50;1.90;;;;;;;9.60;54.39;99780.38;4718260;30;20044;-92
2022/04/08 10:21:14;;;;;;;8.88;2.40;;;;;;;9.63;55.90;99759.94;4694570;30;20073;-92
2022/04/08 10:23:52;;;;;;;4.68;2.08;;;;;;;9.73;54.99;99760.31;4697958;30;21382;-92
2022/04/08 10:26:22;;;;;;;7.15;1.85;;;;;;;9.75;55.43;99770.81;4712365;30;20039;-94
2022/04/08 10:28:50;;;;;;;5.45;1.80;;;;;;;9.92;56.04;99762.78;4708519;30;20099;-91
2022/04/08 10:31:16;;;;;;;5.53;2.05;;;;;;;10.00;54.17;99765.88;4699254;30;20060;-91
2022/04/08 10:34:01;;;;;;;5.40;2.08;;;;;;;9.92;55.26;99752.22;4730394;30;20494;-91
2022/04/08 10:36:43;;;;;;;6.32;2.10;;;;;;;9.90;54.92;99752.34;4713397;30;20040;-91
2022/04/08 10:39:16;;;;;;;6.88;2.25;;;;;;;9.66;54.35;99757.16;4715362;30;20040;-90
2022/04/08 10:41:57;;;;;;;3.72;1.88;;;;;;;9.62;56.91;99755.63;4698861;30;20590;-91
2022/04/08 10:44:41;;;;;;;8.05;2.42;;;;;;;9.64;57.23;99745.81;4713819;30;20514;-91
2022/04/08 10:47:15;;;;;;;6.90;3.20;;;;;;;9.52;56.78;99743.84;4697454;30;20043;-89
2022/04/08 10:49:56;;;;;;;7.80;3.03;;;;;;;9.42;57.28;99748.78;4709681;30;20086;-89
2022/04/08 10:52:27;;;;;;;6.10;2.63;;;;;;;9.35;56.47;99749.16;4714050;30;20048;-91
2022/04/08 10:55:05;;;;;;;7.63;2.95;;;;;;;9.46;57.91;99754.72;4715336;30;20107;-91
2022/04/08 10:57:39;;;;;;;4.70;2.70;;;;;;;9.52;57.42;99757.03;4713905;30;20121;-91
2022/04/08 11:00:07;;;;;;;5.55;2.92;;;;;;;9.69;57.78;99754.34;4712077;30;20041;-91
2022/04/08 11:02:34;;;;;;;5.47;2.85;;;;;;;9.41;56.96;99748.81;4697418;30;20041;-90
2022/04/08 11:05:01;;;;;;;6.97;3.00;;;;;;;9.50;57.41;99752.78;4700551;30;20452;-91
2022/04/08 11:07:30;;;;;;;9.15;3.00;;;;;;;9.49;57.43;99754.56;4714071;30;20029;-91
2022/04/08 11:09:56;;;;;;;8.90;3.13;;;;;;;9.63;57.91;99751.19;4712603;30;20131;-91
2022/04/08 11:12:22;;;;;;;4.82;3.00;;;;;;;9.55;56.78;99735.75;4692828;30;20414;-91
2022/04/08 11:14:54;;;;;;;7.60;3.22;;;;;;;9.64;57.15;99719.41;4694525;30;21022;-91
2022/04/08 11:17:20;;;;;;;6.78;2.83;;;;;;;9.50;56.08;99718.47;4695689;30;20041;-90
2022/04/08 11:19:49;;;;;;;9.05;3.13;;;;;;;9.47;56.42;99735.34;4702136;30;20028;-91
2022/04/08 11:22:14;;;;;;;8.75;3.20;;;;;;;9.14;56.49;99723.00;4698086;30;20307;-90
2022/04/08 11:24:40;;;;;;;6.78;2.83;;;;;;;9.32;57.14;99730.84;4713852;30;20032;-92
2022/04/08 11:27:05;;;;;;;7.38;3.25;;;;;;;9.44;58.64;99719.66;4696733;30;20508;-90
2022/04/08 11:29:31;;;;;;;7.63;3.58;;;;;;;9.67;57.53;99711.34;4710777;30;20045;-90
2022/04/08 11:32:11;;;;;;;6.95;2.88;;;;;;;9.90;56.01;99722.44;4711053;30;20802;-91
2022/04/08 11:34:37;;;;;;;7.35;2.92;;;;;;;9.61;55.36;99709.06;4694987;30;20164;-91
2022/04/08 11:37:03;;;;;;;11.88;3.47;;;;;;;9.81;55.24;99701.81;4714589;30;20036;-91